createdAt,value
2022-12-25T00:02:00.108Z,95.66
2022-12-25T00:04:29.295Z,95.54
2022-12-25T00:06:59.623Z,95.46
2022-12-25T00:09:28.920Z,95.38
2022-12-25T00:11:58.420Z,95.26
2022-12-25T00:14:27.637Z,95.21
2022-12-25T00:16:56.908Z,95.27
2022-12-25T00:19:26.120Z,95.37
2022-12-25T00:21:55.647Z,95.23
2022-12-25T00:24:24.840Z,95.21
2022-12-25T00:26:54.327Z,95.37
2022-12-25T00:29:23.794Z,95.29
2022-12-25T00:31:54.456Z,95.22
2022-12-25T00:34:24.380Z,95.15
2022-12-25T00:36:54.309Z,95.14
2022-12-25T00:39:23.608Z,95.14
2022-12-25T00:42:11.680Z,95.24
2022-12-25T00:44:40.900Z,95.01
2022-12-25T00:47:10.202Z,95.09
2022-12-25T00:49:39.587Z,95.12
2022-12-25T00:52:09.405Z,95.13
2022-12-25T00:54:39.185Z,95.01
2022-12-25T00:57:08.435Z,95.07
2022-12-25T00:59:37.719Z,95.03
2022-12-25T01:02:25.832Z,94.88
2022-12-25T01:04:57.365Z,94.86
2022-12-25T01:07:28.044Z,94.81
2022-12-25T01:10:15.488Z,94.89
2022-12-25T01:12:45.365Z,94.85
2022-12-25T01:15:15.127Z,94.98
2022-12-25T01:17:44.709Z,94.81
2022-12-25T01:20:15.936Z,94.92
2022-12-25T01:22:46.634Z,94.92
2022-12-25T01:25:15.855Z,94.90
2022-12-25T01:27:45.227Z,95.09
2022-12-25T01:30:14.737Z,95.10
2022-12-25T01:32:44.138Z,95.01
2022-12-25T01:35:13.458Z,95.10
2022-12-25T01:37:42.687Z,95.24
2022-12-25T01:40:12.457Z,95.34
2022-12-25T01:42:41.966Z,95.39
2022-12-25T01:45:38.482Z,95.38
2022-12-25T01:48:11.091Z,95.39
2022-12-25T01:50:43.690Z,95.34
2022-12-25T01:53:12.241Z,95.32
2022-12-25T01:55:42.362Z,95.39
2022-12-25T01:58:12.040Z,95.47
2022-12-25T02:00:41.440Z,95.46
2022-12-25T02:03:11.715Z,95.50
2022-12-25T02:05:41.511Z,95.56
2022-12-25T02:08:12.792Z,95.70
2022-12-25T02:10:43.903Z,95.81
2022-12-25T02:13:15.515Z,95.85
2022-12-25T02:16:16.771Z,95.84
2022-12-25T02:18:52.084Z,95.93
2022-12-25T02:21:50.214Z,95.95
2022-12-25T02:24:31.433Z,95.92
2022-12-25T02:27:34.519Z,96.22
2022-12-25T02:30:08.937Z,96.32
2022-12-25T02:32:59.341Z,96.50
2022-12-25T02:35:32.725Z,96.79
2022-12-25T02:38:11.950Z,97.08
2022-12-25T02:40:46.364Z,97.22
2022-12-25T02:43:45.479Z,97.30
2022-12-25T02:46:35.267Z,97.23
2022-12-25T02:49:25.694Z,97.24
2022-12-25T02:52:22.008Z,97.54
2022-12-25T02:55:14.296Z,97.69
2022-12-25T02:58:04.923Z,97.76
2022-12-25T03:00:53.956Z,97.88
2022-12-25T03:03:42.463Z,97.83
2022-12-25T03:06:30.509Z,97.83
2022-12-25T03:09:02.356Z,97.84
2022-12-25T03:11:32.432Z,97.79
2022-12-25T03:14:24.405Z,97.95
2022-12-25T03:16:56.431Z,98.00
2022-12-25T03:19:51.994Z,97.93
2022-12-25T03:22:42.293Z,97.78
2022-12-25T03:25:29.311Z,97.81
2022-12-25T03:27:59.283Z,97.75
2022-12-25T03:30:49.663Z,97.71
2022-12-25T03:33:44.667Z,97.74
2022-12-25T03:36:06.490Z,97.69
2022-12-25T03:38:52.710Z,97.60
2022-12-25T03:42:00.101Z,97.70
2022-12-25T03:44:53.198Z,97.64
2022-12-25T03:47:37.072Z,97.54
2022-12-25T03:51:00.403Z,97.53
2022-12-25T03:53:53.868Z,97.53
2022-12-25T03:56:41.559Z,97.57
2022-12-25T03:59:28.833Z,97.58
2022-12-25T04:02:16.841Z,97.44
2022-12-25T04:05:04.364Z,97.39
2022-12-25T04:07:51.610Z,97.43
2022-12-25T04:10:38.735Z,97.34
2022-12-25T04:13:25.781Z,97.31
2022-12-25T04:16:14.016Z,97.21
2022-12-25T04:19:01.193Z,97.14
2022-12-25T04:21:48.395Z,96.93
2022-12-25T04:24:35.910Z,96.84
2022-12-25T04:27:23.442Z,96.53
2022-12-25T04:30:10.761Z,96.54
2022-12-25T04:32:58.307Z,96.50
2022-12-25T04:35:45.429Z,96.30
2022-12-25T04:38:15.061Z,96.18
2022-12-25T04:40:44.515Z,96.14
2022-12-25T04:43:13.754Z,96.08
2022-12-25T04:45:42.947Z,96.17
2022-12-25T04:48:12.210Z,96.18
2022-12-25T04:50:41.407Z,96.11
2022-12-25T04:53:11.187Z,96.03
2022-12-25T04:55:40.441Z,96.00
2022-12-25T04:58:10.072Z,95.93
2022-12-25T05:00:39.375Z,96.05
2022-12-25T05:03:08.754Z,96.12
2022-12-25T05:05:40.792Z,96.10
2022-12-25T05:08:10.293Z,95.93
2022-12-25T05:10:41.692Z,95.91
2022-12-25T05:13:10.913Z,95.87
2022-12-25T05:15:44.218Z,95.84
2022-12-25T05:18:13.731Z,95.85
2022-12-25T05:20:42.963Z,95.88
2022-12-25T05:23:12.996Z,95.78
2022-12-25T05:25:42.203Z,95.67
2022-12-25T05:28:11.749Z,95.53
2022-12-25T05:30:41.410Z,95.31
2022-12-25T05:33:10.654Z,95.02
2022-12-25T05:35:40.472Z,94.80
2022-12-25T05:38:10.015Z,94.67
2022-12-25T05:40:41.131Z,94.55
2022-12-25T05:43:10.385Z,94.51
2022-12-25T05:45:40.087Z,94.48
2022-12-25T05:48:10.898Z,94.29
2022-12-25T05:50:40.296Z,94.11
2022-12-25T05:53:10.981Z,94.18
2022-12-25T05:55:43.530Z,94.01
2022-12-25T05:58:12.420Z,94.11
2022-12-25T06:00:42.307Z,94.05
2022-12-25T06:03:12.108Z,94.08
2022-12-25T06:05:41.658Z,94.08
2022-12-25T06:08:11.124Z,93.94
2022-12-25T06:10:40.771Z,94.18
2022-12-25T06:13:10.235Z,94.27
2022-12-25T06:15:43.222Z,94.00
2022-12-25T06:18:12.424Z,93.87
2022-12-25T06:20:42.273Z,94.01
2022-12-25T06:23:11.539Z,94.07
2022-12-25T06:25:41.958Z,94.12
2022-12-25T06:28:11.165Z,93.95
2022-12-25T06:30:40.397Z,93.58
2022-12-25T06:33:09.648Z,93.28
2022-12-25T06:35:40.984Z,93.46
2022-12-25T06:38:10.225Z,93.44
2022-12-25T06:40:39.638Z,93.18
2022-12-25T06:43:09.094Z,93.19
2022-12-25T06:45:38.435Z,93.34
2022-12-25T06:48:08.286Z,93.54
2022-12-25T06:50:37.782Z,93.60
2022-12-25T06:53:07.514Z,93.71
2022-12-25T06:55:36.892Z,93.82
2022-12-25T06:58:06.308Z,93.77
2022-12-25T07:00:35.704Z,93.55
2022-12-25T07:03:05.854Z,93.57
2022-12-25T07:05:35.260Z,93.72
2022-12-25T07:08:04.747Z,93.78
2022-12-25T07:10:34.127Z,93.79
2022-12-25T07:13:03.776Z,93.80
2022-12-25T07:15:32.974Z,93.85
2022-12-25T07:18:02.194Z,93.92
2022-12-25T07:20:31.578Z,93.80
2022-12-25T07:23:00.797Z,93.86
2022-12-25T07:25:36.833Z,93.76
2022-12-25T07:28:01.410Z,93.46
2022-12-25T07:30:30.629Z,93.77
2022-12-25T07:33:00.438Z,93.79
2022-12-25T07:35:29.921Z,93.84
2022-12-25T07:37:59.741Z,93.73
2022-12-25T07:40:28.948Z,93.83
2022-12-25T07:42:58.548Z,93.94
2022-12-25T07:45:27.763Z,94.15
2022-12-25T07:48:02.721Z,94.20
2022-12-25T07:50:28.392Z,94.03
2022-12-25T07:52:58.241Z,94.07
2022-12-25T07:55:27.446Z,94.10
2022-12-25T07:57:56.767Z,94.14
2022-12-25T08:00:27.739Z,94.22
2022-12-25T08:02:57.574Z,94.19
2022-12-25T08:05:27.276Z,94.25
2022-12-25T08:07:58.239Z,94.35
2022-12-25T08:10:27.696Z,94.41
2022-12-25T08:12:57.693Z,94.49
2022-12-25T08:15:26.903Z,94.40
2022-12-25T08:17:56.591Z,94.48
2022-12-25T08:20:25.826Z,94.46
2022-12-25T08:22:55.467Z,94.44
2022-12-25T08:25:24.664Z,94.37
2022-12-25T08:27:55.173Z,94.26
2022-12-25T08:30:24.353Z,94.28
2022-12-25T08:32:53.645Z,94.36
2022-12-25T08:35:23.090Z,94.45
2022-12-25T08:37:52.663Z,94.30
2022-12-25T08:40:22.390Z,94.57
2022-12-25T08:42:52.183Z,94.47
2022-12-25T08:45:22.025Z,94.41
2022-12-25T08:47:56.227Z,94.35
2022-12-25T08:50:26.119Z,94.50
2022-12-25T08:52:55.943Z,94.53
2022-12-25T08:55:25.789Z,94.45
2022-12-25T08:57:55.363Z,94.37
2022-12-25T09:00:24.923Z,94.52
2022-12-25T09:02:54.919Z,94.46
2022-12-25T09:05:24.399Z,94.44
2022-12-25T09:07:54.218Z,94.59
2022-12-25T09:10:23.979Z,94.63
2022-12-25T09:12:53.275Z,94.77
2022-12-25T09:15:22.596Z,95.08
2022-12-25T09:17:51.973Z,95.28
2022-12-25T09:20:21.654Z,95.64
2022-12-25T09:22:50.879Z,95.72
2022-12-25T09:25:20.310Z,95.82
2022-12-25T09:27:49.885Z,96.07
2022-12-25T09:30:19.182Z,96.32
2022-12-25T09:32:48.659Z,96.53
2022-12-25T09:35:20.687Z,96.85
2022-12-25T09:37:50.237Z,97.06
2022-12-25T09:40:21.509Z,97.21
2022-12-25T09:42:52.921Z,97.31
2022-12-25T09:45:27.983Z,97.43
2022-12-25T09:47:58.525Z,97.41
2022-12-25T09:50:36.786Z,97.71
2022-12-25T09:53:20.479Z,97.81
2022-12-25T09:56:15.378Z,97.85
2022-12-25T09:58:45.284Z,97.58
2022-12-25T10:01:17.830Z,97.65
2022-12-25T10:04:06.812Z,97.78
2022-12-25T10:06:55.914Z,97.72
2022-12-25T10:09:37.341Z,97.76
2022-12-25T10:12:40.054Z,97.81
2022-12-25T10:15:24.552Z,97.85
2022-12-25T10:18:16.788Z,97.91
2022-12-25T10:20:49.382Z,98.15
2022-12-25T10:23:22.576Z,98.15
2022-12-25T10:25:51.596Z,98.17
2022-12-25T10:28:29.659Z,98.23
2022-12-25T10:31:02.033Z,98.23
2022-12-25T10:33:31.771Z,98.23
2022-12-25T10:36:01.685Z,98.28
2022-12-25T10:38:31.271Z,98.30
2022-12-25T10:41:21.797Z,98.29
2022-12-25T10:43:53.717Z,98.41
2022-12-25T10:46:25.674Z,98.46
2022-12-25T10:48:59.716Z,98.57
2022-12-25T10:51:34.788Z,98.59
2022-12-25T10:54:25.229Z,98.50
2022-12-25T10:56:57.526Z,98.54
2022-12-25T10:59:32.882Z,98.51
2022-12-25T11:02:32.974Z,98.58
2022-12-25T11:05:11.347Z,98.65
2022-12-25T11:07:52.982Z,98.70
2022-12-25T11:10:33.605Z,98.65
2022-12-25T11:13:04.240Z,98.71
2022-12-25T11:15:36.712Z,98.72
2022-12-25T11:18:21.123Z,98.75
2022-12-25T11:20:56.095Z,98.62
2022-12-25T11:23:27.101Z,98.46
2022-12-25T11:26:08.035Z,98.54
2022-12-25T11:28:38.999Z,98.67
2022-12-25T11:31:16.629Z,98.62
2022-12-25T11:33:57.409Z,98.60
2022-12-25T11:36:50.140Z,98.71
2022-12-25T11:39:33.697Z,98.52
2022-12-25T11:42:26.532Z,98.61
2022-12-25T11:45:15.621Z,98.64
2022-12-25T11:47:56.905Z,98.73
2022-12-25T11:50:41.495Z,98.76
2022-12-25T11:53:39.658Z,98.72
2022-12-25T11:56:14.812Z,98.75
2022-12-25T11:58:46.326Z,98.79
2022-12-25T12:01:36.680Z,98.85
2022-12-25T12:04:08.249Z,98.88
2022-12-25T12:06:52.450Z,98.95
2022-12-25T12:09:39.963Z,98.99
2022-12-25T12:12:12.518Z,99.09
2022-12-25T12:15:00.933Z,99.09
2022-12-25T12:17:30.088Z,99.20
2022-12-25T12:19:59.805Z,99.25
2022-12-25T12:22:29.665Z,99.17
2022-12-25T12:25:01.469Z,98.95
2022-12-25T12:27:38.298Z,99.03
2022-12-25T12:30:10.421Z,98.98
2022-12-25T12:32:42.487Z,99.11
2022-12-25T12:35:23.805Z,99.08
2022-12-25T12:37:56.152Z,98.91
2022-12-25T12:40:31.664Z,99.07
2022-12-25T12:43:01.835Z,99.10
2022-12-25T12:45:37.243Z,99.00
2022-12-25T12:48:17.608Z,98.70
2022-12-25T12:50:48.255Z,98.79
2022-12-25T12:53:23.930Z,98.86
2022-12-25T12:55:53.795Z,98.99
2022-12-25T12:58:34.857Z,98.97
2022-12-25T13:01:19.355Z,98.91
2022-12-25T13:04:00.799Z,99.03
2022-12-25T13:06:47.379Z,99.17
2022-12-25T13:09:45.097Z,99.24
2022-12-25T13:12:15.318Z,99.23
2022-12-25T13:14:48.484Z,99.27
2022-12-25T13:17:20.881Z,99.36
2022-12-25T13:19:53.307Z,99.60
2022-12-25T13:22:28.846Z,99.56
2022-12-25T13:25:00.587Z,99.45
2022-12-25T13:27:32.709Z,99.42
2022-12-25T13:30:05.091Z,99.28
2022-12-25T13:32:35.128Z,99.25
2022-12-25T13:35:04.478Z,99.27
2022-12-25T13:37:34.200Z,99.57
2022-12-25T13:40:06.329Z,99.53
2022-12-25T13:42:37.660Z,99.66
2022-12-25T13:45:10.086Z,99.75
2022-12-25T13:47:43.065Z,99.78
2022-12-25T13:50:30.482Z,99.79
2022-12-25T13:53:14.251Z,99.77
2022-12-25T13:55:45.316Z,99.92
2022-12-25T13:58:17.967Z,99.95
2022-12-25T14:00:47.403Z,99.89
2022-12-25T14:03:25.967Z,99.89
2022-12-25T14:06:00.655Z,99.89
2022-12-25T14:08:34.439Z,99.95
2022-12-25T14:11:05.726Z,99.98
2022-12-25T14:13:38.314Z,100.00
2022-12-25T14:16:07.006Z,100.00
2022-12-25T14:18:36.371Z,100.00
2022-12-25T14:21:17.676Z,100.00
2022-12-25T14:23:48.932Z,100.00
2022-12-25T14:26:27.290Z,100.00
2022-12-25T14:29:12.632Z,100.00
2022-12-25T14:31:40.712Z,100.00
2022-12-25T14:34:21.920Z,100.00
2022-12-25T14:36:52.783Z,100.00
2022-12-25T14:39:36.614Z,100.00
2022-12-25T14:42:15.283Z,100.00
2022-12-25T14:44:44.665Z,100.00
2022-12-25T14:47:18.767Z,100.00
2022-12-25T14:49:48.874Z,100.00
2022-12-25T14:52:24.158Z,100.00
2022-12-25T14:54:59.012Z,100.00
2022-12-25T14:57:31.049Z,100.00
2022-12-25T15:00:03.425Z,100.00
2022-12-25T15:02:36.084Z,100.00
2022-12-25T15:05:06.497Z,100.00
2022-12-25T15:07:35.815Z,100.00
2022-12-25T15:10:57.681Z,100.00
2022-12-25T15:12:39.095Z,100.00
2022-12-25T15:15:09.289Z,100.00
2022-12-25T15:17:38.831Z,100.00
2022-12-25T15:20:10.903Z,100.00
2022-12-25T15:23:02.796Z,100.00
2022-12-25T15:25:15.087Z,100.00
2022-12-25T15:27:43.817Z,100.00
2022-12-25T15:30:14.171Z,100.00
2022-12-25T15:32:43.507Z,100.00
2022-12-25T15:35:23.466Z,100.00
2022-12-25T15:37:52.671Z,100.00
2022-12-25T15:40:22.127Z,100.00
2022-12-25T15:42:51.418Z,100.00
2022-12-25T15:45:26.666Z,100.00
2022-12-25T15:47:56.058Z,100.00
2022-12-25T15:50:25.343Z,100.00
2022-12-25T15:52:54.740Z,100.00
2022-12-25T15:55:24.579Z,100.00
2022-12-25T15:57:54.606Z,100.00
2022-12-25T16:00:25.854Z,100.00
2022-12-25T16:02:55.563Z,100.00
2022-12-25T16:05:25.116Z,100.00
2022-12-25T16:07:54.835Z,100.00
2022-12-25T16:10:24.034Z,100.00
2022-12-25T16:12:53.512Z,100.00
2022-12-25T16:15:22.708Z,100.00
2022-12-25T16:17:51.953Z,100.00
2022-12-25T16:20:21.152Z,100.00
2022-12-25T16:22:50.609Z,100.00
2022-12-25T16:25:20.685Z,100.00
2022-12-25T16:27:49.938Z,100.00
2022-12-25T16:30:19.965Z,100.00
2022-12-25T16:32:50.884Z,100.00
2022-12-25T16:35:20.456Z,100.00
2022-12-25T16:37:49.654Z,100.00
2022-12-25T16:40:19.101Z,100.00
2022-12-25T16:42:48.598Z,100.00
2022-12-25T16:45:18.328Z,100.00
2022-12-25T16:47:47.704Z,100.00
2022-12-25T16:50:17.432Z,100.00
2022-12-25T16:52:46.643Z,100.00
2022-12-25T16:55:16.138Z,100.00
2022-12-25T16:57:47.012Z,100.00
2022-12-25T17:00:17.273Z,100.00
2022-12-25T17:02:46.665Z,100.00
2022-12-25T17:05:16.240Z,100.00
2022-12-25T17:07:45.668Z,100.00
2022-12-25T17:10:15.541Z,100.00
2022-12-25T17:12:45.811Z,100.00
2022-12-25T17:15:15.334Z,100.00
2022-12-25T17:17:44.534Z,100.00
2022-12-25T17:20:14.214Z,100.00
2022-12-25T17:22:43.553Z,100.00
2022-12-25T17:25:13.209Z,100.00
2022-12-25T17:27:42.624Z,100.00
2022-12-25T17:30:12.456Z,100.00
2022-12-25T17:32:41.663Z,100.00
2022-12-25T17:35:11.451Z,100.00
2022-12-25T17:37:40.987Z,100.00
2022-12-25T17:40:11.070Z,100.00
2022-12-25T17:42:40.591Z,100.00
2022-12-25T17:45:10.631Z,100.00
2022-12-25T17:47:39.855Z,100.00
2022-12-25T17:50:09.784Z,100.00
2022-12-25T17:52:38.989Z,100.00
2022-12-25T17:55:09.178Z,100.00
2022-12-25T17:57:41.098Z,100.00
2022-12-25T18:00:10.345Z,100.00
2022-12-25T18:02:40.092Z,100.00
2022-12-25T18:05:10.567Z,100.00
2022-12-25T18:07:39.765Z,100.00
2022-12-25T18:10:09.741Z,100.00
2022-12-25T18:12:39.001Z,100.00
2022-12-25T18:15:09.309Z,100.00
2022-12-25T18:17:39.376Z,100.00
2022-12-25T18:20:09.612Z,100.00
2022-12-25T18:22:39.116Z,100.00
2022-12-25T18:25:09.064Z,100.00
2022-12-25T18:27:38.594Z,100.00
2022-12-25T18:30:09.121Z,100.00
2022-12-25T18:32:38.522Z,100.00
2022-12-25T18:35:08.948Z,100.00
2022-12-25T18:37:40.276Z,100.00
2022-12-25T18:40:10.384Z,100.00
2022-12-25T18:42:39.730Z,100.00
2022-12-25T18:45:11.324Z,100.00
2022-12-25T18:47:40.643Z,100.00
2022-12-25T18:50:10.714Z,100.00
2022-12-25T18:52:49.020Z,100.00
2022-12-25T18:55:13.272Z,100.00
2022-12-25T18:57:42.599Z,100.00
2022-12-25T19:00:12.511Z,100.00
2022-12-25T19:02:42.223Z,100.00
2022-12-25T19:05:11.953Z,100.00
2022-12-25T19:07:41.183Z,100.00
2022-12-25T19:10:11.781Z,100.00
2022-12-25T19:12:41.006Z,100.00
2022-12-25T19:15:11.920Z,100.00
2022-12-25T19:17:41.157Z,100.00
2022-12-25T19:20:11.236Z,100.00
2022-12-25T19:22:40.475Z,100.00
2022-12-25T19:25:10.393Z,100.00
2022-12-25T19:27:39.613Z,100.00
2022-12-25T19:30:11.078Z,100.00
2022-12-25T19:32:40.296Z,100.00
2022-12-25T19:35:10.265Z,100.00
2022-12-25T19:37:39.667Z,100.00
2022-12-25T19:40:09.923Z,100.00
2022-12-25T19:42:39.249Z,100.00
2022-12-25T19:45:09.658Z,100.00
2022-12-25T19:47:38.946Z,100.00
2022-12-25T19:50:09.240Z,100.00
2022-12-25T19:52:38.468Z,100.00
2022-12-25T19:55:08.306Z,100.00
2022-12-25T19:57:37.535Z,100.00
2022-12-25T20:00:08.448Z,100.00
2022-12-25T20:02:38.797Z,100.00
2022-12-25T20:05:09.947Z,100.00
2022-12-25T20:07:39.446Z,100.00
2022-12-25T20:10:09.941Z,100.00
2022-12-25T20:12:39.178Z,100.00
2022-12-25T20:15:09.359Z,100.00
2022-12-25T20:17:38.868Z,100.00
2022-12-25T20:20:09.345Z,100.00
2022-12-25T20:22:39.858Z,100.00
2022-12-25T20:25:11.167Z,100.00
2022-12-25T20:27:40.546Z,100.00
2022-12-25T20:30:10.400Z,100.00
2022-12-25T20:32:42.547Z,100.00
2022-12-25T20:35:17.305Z,100.00
2022-12-25T20:37:46.721Z,100.00
2022-12-25T20:40:16.181Z,100.00
2022-12-25T20:42:45.463Z,100.00
2022-12-25T20:45:14.822Z,100.00
2022-12-25T20:47:44.042Z,100.00
2022-12-25T20:50:13.547Z,100.00
2022-12-25T20:52:42.768Z,100.00
2022-12-25T20:55:14.158Z,100.00
2022-12-25T20:57:44.091Z,100.00
2022-12-25T21:00:14.248Z,100.00
2022-12-25T21:02:44.403Z,100.00
2022-12-25T21:05:13.945Z,100.00
2022-12-25T21:07:43.319Z,100.00
2022-12-25T21:10:13.156Z,100.00
2022-12-25T21:12:43.110Z,100.00
2022-12-25T21:15:15.835Z,100.00
2022-12-25T21:17:44.512Z,100.00
2022-12-25T21:20:13.902Z,100.00
2022-12-25T21:22:43.124Z,100.00
2022-12-25T21:25:12.329Z,100.00
2022-12-25T21:27:41.703Z,100.00
2022-12-25T21:30:14.082Z,100.00
2022-12-25T21:33:00.162Z,100.00
2022-12-25T21:35:29.392Z,100.00
2022-12-25T21:37:58.602Z,100.00
2022-12-25T21:40:28.233Z,100.00
2022-12-25T21:42:57.634Z,100.00
2022-12-25T21:45:27.058Z,100.00
2022-12-25T21:48:01.606Z,100.00
2022-12-25T21:50:45.462Z,100.00
2022-12-25T21:53:18.201Z,100.00
2022-12-25T21:56:02.552Z,100.00
2022-12-25T21:58:32.091Z,100.00
2022-12-25T22:01:05.171Z,100.00
2022-12-25T22:03:34.731Z,100.00
2022-12-25T22:06:22.055Z,100.00
2022-12-25T22:08:51.648Z,100.00
2022-12-25T22:11:39.196Z,100.00
2022-12-25T22:14:52.615Z,100.00
2022-12-25T22:17:22.135Z,100.00
2022-12-25T22:19:51.743Z,100.00
2022-12-25T22:22:25.779Z,100.00
2022-12-25T22:24:57.546Z,100.00
2022-12-25T22:27:28.993Z,100.00
2022-12-25T22:29:59.040Z,100.00
2022-12-25T22:32:28.828Z,100.00
2022-12-25T22:34:58.543Z,100.00
2022-12-25T22:37:29.348Z,100.00
2022-12-25T22:40:00.926Z,100.00
2022-12-25T22:42:30.218Z,100.00
2022-12-25T22:44:59.456Z,100.00
2022-12-25T22:47:29.096Z,100.00
2022-12-25T22:49:58.465Z,100.00
2022-12-25T22:52:27.671Z,100.00
2022-12-25T22:54:56.897Z,100.00
2022-12-25T22:57:26.791Z,100.00
2022-12-25T22:59:56.181Z,100.00
2022-12-25T23:02:26.297Z,100.00
2022-12-25T23:04:55.930Z,100.00
2022-12-25T23:07:25.628Z,100.00
2022-12-25T23:09:54.865Z,100.00
2022-12-25T23:12:41.983Z,100.00
2022-12-25T23:15:11.504Z,100.00
2022-12-25T23:17:58.623Z,100.00
2022-12-25T23:20:45.681Z,100.00
2022-12-25T23:23:34.784Z,100.00
2022-12-25T23:26:08.341Z,100.00
2022-12-25T23:28:57.839Z,100.00
2022-12-25T23:31:36.527Z,100.00
2022-12-25T23:34:07.796Z,100.00
2022-12-25T23:36:37.371Z,100.00
2022-12-25T23:39:10.132Z,100.00
2022-12-25T23:41:38.087Z,100.00
2022-12-25T23:44:07.992Z,100.00
2022-12-25T23:46:37.616Z,100.00
2022-12-25T23:49:07.331Z,100.00
2022-12-25T23:51:39.489Z,100.00
2022-12-25T23:54:08.879Z,100.00
2022-12-25T23:56:38.708Z,100.00
2022-12-25T23:59:08.819Z,100.00
